Time;durP1;ratioP1;P1;durP2;ratioP2;P2;SDS_P1;SDS_P2;PMS_P1;PMS_P2;Temp;Humidity;BMP_temperature;BMP_pressure;BME280_temperature;BME280_humidity;BME280_pressure;Samples;Min_cycle;Max_cycle;Signal;HPM_P1;HPM_P2
2021/04/09 00:01:08;;;;;;;;;;;16.30;63.40;;;;;;4941918;28;19914;-77
2021/04/09 00:03:33;;;;;;;;;;;16.30;63.40;;;;;;4942311;28;20348;-77
2021/04/09 00:05:59;;;;;;;;;;;16.30;63.30;;;;;;4940805;28;19931;-77
2021/04/09 00:08:24;;;;;;;;;;;16.20;63.30;;;;;;4944415;28;20877;-77
2021/04/09 00:10:50;;;;;;;;;;;16.30;63.40;;;;;;4942594;28;19923;-76
2021/04/09 00:13:15;;;;;;;;;;;16.30;63.30;;;;;;4940490;28;19921;-77
2021/04/09 00:15:41;;;;;;;;;;;16.30;63.30;;;;;;4941616;28;19930;-81
2021/04/09 00:18:06;;;;;;;;;;;16.20;63.30;;;;;;4941057;28;19923;-77
2021/04/09 00:20:32;;;;;;;;;;;16.30;63.30;;;;;;4940279;28;20387;-79
2021/04/09 00:22:57;;;;;;;;;;;16.20;63.20;;;;;;4944452;28;20005;-78
2021/04/09 00:25:23;;;;;;;;;;;16.30;63.20;;;;;;4942984;28;19996;-78
2021/04/09 00:27:49;;;;;;;;;;;16.30;63.20;;;;;;4942505;28;19958;-78
2021/04/09 00:30:17;;;;;;;;;;;16.20;63.20;;;;;;4944785;28;19919;-77
2021/04/09 00:32:44;;;;;;;;;;;16.20;63.20;;;;;;4971300;28;19969;-77
2021/04/09 00:35:10;;;;;;;;;;;16.20;63.10;;;;;;4947579;28;19915;-77
2021/04/09 00:37:35;;;;;;;;;;;16.20;63.20;;;;;;4943726;28;19921;-78
2021/04/09 00:40:04;;;;;;;;;;;16.20;63.10;;;;;;4940083;28;19915;-77
2021/04/09 00:42:29;;;;;;;;;;;16.20;63.10;;;;;;4946060;28;19924;-77
2021/04/09 00:44:57;;;;;;;;;;;16.20;63.10;;;;;;4944172;28;19923;-77
2021/04/09 00:47:24;;;;;;;;;;;16.20;63.10;;;;;;4944403;28;19926;-77
2021/04/09 00:49:50;;;;;;;;;;;16.20;63.10;;;;;;4945461;28;19919;-77
2021/04/09 00:52:21;;;;;;;;;;;16.20;63.00;;;;;;4941068;28;19914;-77
2021/04/09 00:54:47;;;;;;;;;;;16.30;63.00;;;;;;4947513;28;19915;-77
2021/04/09 00:57:12;;;;;;;;;;;16.20;62.90;;;;;;4945892;28;19921;-77
2021/04/09 00:59:38;;;;;;;;;;;16.20;63.00;;;;;;4946363;28;19922;-76
2021/04/09 01:02:04;;;;;;;;;;;16.20;63.00;;;;;;4940460;28;19922;-78
2021/04/09 01:04:30;;;;;;;;;;;16.20;62.90;;;;;;4944059;28;19914;-77
2021/04/09 01:06:55;;;;;;;;;;;16.20;62.90;;;;;;4948348;28;19926;-79
2021/04/09 01:09:21;;;;;;;;;;;16.20;62.90;;;;;;4943347;28;19988;-77
2021/04/09 01:11:46;;;;;;;;;;;16.20;62.90;;;;;;4945831;28;19926;-77
2021/04/09 01:14:12;;;;;;;;;;;16.20;62.90;;;;;;4945898;28;19915;-78
2021/04/09 01:16:43;;;;;;;;;;;16.20;62.90;;;;;;4944760;28;19919;-77
2021/04/09 01:19:08;;;;;;;;;;;16.20;62.80;;;;;;4941872;28;20386;-75
2021/04/09 01:21:41;;;;;;;;;;;16.20;62.80;;;;;;4942698;28;19915;-75
2021/04/09 01:24:25;;;;;;;;;;;16.20;62.80;;;;;;4959278;28;19914;-75
2021/04/09 01:26:53;;;;;;;;;;;16.20;62.80;;;;;;4976497;28;20692;-75
2021/04/09 01:29:22;;;;;;;;;;;16.20;62.80;;;;;;4970504;28;20016;-75
2021/04/09 01:32:07;;;;;;;;;;;16.20;62.70;;;;;;4942699;28;19923;-75
2021/04/09 01:34:45;;;;;;;;;;;16.20;62.70;;;;;;4940045;28;19918;-76
2021/04/09 01:37:10;;;;;;;;;;;16.20;62.80;;;;;;4953398;28;19925;-77
2021/04/09 01:39:38;;;;;;;;;;;16.20;62.70;;;;;;4972590;28;19915;-76
2021/04/09 01:42:05;;;;;;;;;;;16.20;62.70;;;;;;4979148;28;20012;-76
2021/04/09 01:44:31;;;;;;;;;;;16.20;62.70;;;;;;4959714;28;19966;-76
2021/04/09 01:46:57;;;;;;;;;;;16.20;62.60;;;;;;4941814;28;20013;-76
2021/04/09 01:49:23;;;;;;;;;;;16.10;62.60;;;;;;4941942;28;19977;-77
2021/04/09 01:51:50;;;;;;;;;;;16.20;62.60;;;;;;4943368;28;19961;-76
2021/04/09 01:54:16;;;;;;;;;;;16.20;62.60;;;;;;4944512;28;19930;-75
2021/04/09 01:56:43;;;;;;;;;;;16.20;62.60;;;;;;4939869;28;19915;-77
2021/04/09 01:59:11;;;;;;;;;;;16.20;62.60;;;;;;4945064;28;20002;-76
2021/04/09 02:01:40;;;;;;;;;;;16.20;62.60;;;;;;4941149;28;19915;-76
2021/04/09 02:04:06;;;;;;;;;;;16.20;62.60;;;;;;4943979;28;19921;-76
2021/04/09 02:06:33;;;;;;;;;;;16.20;62.50;;;;;;4970464;28;19962;-77
2021/04/09 02:09:00;;;;;;;;;;;16.10;62.50;;;;;;4961020;28;19918;-78
2021/04/09 02:11:26;;;;;;;;;;;16.10;62.50;;;;;;4949312;28;19915;-76
2021/04/09 02:13:52;;;;;;;;;;;16.20;62.50;;;;;;4946789;28;19918;-76
2021/04/09 02:16:18;;;;;;;;;;;16.20;62.50;;;;;;4942899;28;20271;-76
2021/04/09 02:18:44;;;;;;;;;;;16.10;62.50;;;;;;4943249;28;20019;-76
2021/04/09 02:21:09;;;;;;;;;;;16.10;62.40;;;;;;4972428;28;19915;-77
2021/04/09 02:23:36;;;;;;;;;;;16.10;62.40;;;;;;4944114;28;19925;-79
2021/04/09 02:26:02;;;;;;;;;;;16.10;62.40;;;;;;4945367;28;19918;-76
2021/04/09 02:28:28;;;;;;;;;;;16.10;62.40;;;;;;4944506;28;19941;-76
2021/04/09 02:31:03;;;;;;;;;;;16.10;62.40;;;;;;4944690;28;20347;-77
2021/04/09 02:33:30;;;;;;;;;;;16.10;62.40;;;;;;4942282;28;19919;-77
2021/04/09 02:35:55;;;;;;;;;;;16.10;62.40;;;;;;4947144;28;19915;-76
2021/04/09 02:38:21;;;;;;;;;;;16.10;62.40;;;;;;4938793;28;19972;-76
2021/04/09 02:40:47;;;;;;;;;;;16.10;62.30;;;;;;4940037;28;19918;-76
2021/04/09 02:43:14;;;;;;;;;;;16.10;62.30;;;;;;4938868;28;19976;-76
2021/04/09 02:45:39;;;;;;;;;;;16.10;62.30;;;;;;4975359;28;19924;-77
2021/04/09 02:48:06;;;;;;;;;;;16.10;62.30;;;;;;4973564;28;20005;-76
2021/04/09 02:50:41;;;;;;;;;;;16.10;62.30;;;;;;4945905;28;19911;-76
2021/04/09 02:53:11;;;;;;;;;;;16.10;62.30;;;;;;4947630;28;19915;-76
2021/04/09 02:55:39;;;;;;;;;;;16.10;62.20;;;;;;4940680;28;19915;-77
2021/04/09 02:58:06;;;;;;;;;;;16.10;62.20;;;;;;4949049;28;20014;-77
2021/04/09 03:00:32;;;;;;;;;;;16.10;62.20;;;;;;4944254;28;19922;-77
2021/04/09 03:02:59;;;;;;;;;;;16.10;62.20;;;;;;4939249;28;19958;-78
2021/04/09 03:05:24;;;;;;;;;;;16.10;62.20;;;;;;4974268;28;19997;-77
2021/04/09 03:07:50;;;;;;;;;;;16.10;62.10;;;;;;4944649;28;20017;-78
2021/04/09 03:10:17;;;;;;;;;;;16.10;62.20;;;;;;4942742;28;19919;-78
2021/04/09 03:12:43;;;;;;;;;;;16.00;62.10;;;;;;4946249;28;19983;-78
2021/04/09 03:15:10;;;;;;;;;;;16.10;62.10;;;;;;4939159;28;19923;-77
2021/04/09 03:17:54;;;;;;;;;;;16.10;62.10;;;;;;4942983;28;19964;-77
2021/04/09 03:20:20;;;;;;;;;;;16.10;62.10;;;;;;4941622;28;20000;-77
2021/04/09 03:22:46;;;;;;;;;;;16.10;62.10;;;;;;4941520;28;19919;-77
2021/04/09 03:25:12;;;;;;;;;;;16.10;62.10;;;;;;4941668;28;19929;-77
2021/04/09 03:27:37;;;;;;;;;;;16.10;62.10;;;;;;4940991;28;20268;-77
2021/04/09 03:30:03;;;;;;;;;;;16.10;62.10;;;;;;4946640;28;19925;-78
2021/04/09 03:32:29;;;;;;;;;;;16.10;62.00;;;;;;4943965;28;20009;-77
2021/04/09 03:34:54;;;;;;;;;;;16.10;62.00;;;;;;4942855;28;20344;-77
2021/04/09 03:37:20;;;;;;;;;;;16.10;62.00;;;;;;4940727;28;19921;-77
2021/04/09 03:39:46;;;;;;;;;;;16.10;62.00;;;;;;4937282;28;19921;-77
2021/04/09 03:42:12;;;;;;;;;;;16.00;62.00;;;;;;4939036;28;19915;-77
2021/04/09 03:44:37;;;;;;;;;;;16.00;62.00;;;;;;4945470;28;19923;-77
2021/04/09 03:47:03;;;;;;;;;;;16.10;62.00;;;;;;4939771;28;19919;-77
2021/04/09 03:49:28;;;;;;;;;;;16.10;61.90;;;;;;4943562;28;19924;-78
2021/04/09 03:51:54;;;;;;;;;;;16.10;61.90;;;;;;4940739;28;19914;-77
2021/04/09 03:54:19;;;;;;;;;;;16.00;62.00;;;;;;4936747;28;19969;-78
2021/04/09 03:56:45;;;;;;;;;;;16.10;61.90;;;;;;4939872;28;19915;-78
2021/04/09 03:59:10;;;;;;;;;;;16.00;61.90;;;;;;4949002;28;19976;-77
2021/04/09 04:01:36;;;;;;;;;;;16.00;61.90;;;;;;4942969;28;19921;-77
2021/04/09 04:04:02;;;;;;;;;;;16.00;61.90;;;;;;4945446;28;19918;-77
2021/04/09 04:06:27;;;;;;;;;;;16.00;61.90;;;;;;4946088;28;19926;-77
2021/04/09 04:08:53;;;;;;;;;;;16.00;61.90;;;;;;4950080;28;19969;-78
2021/04/09 04:11:18;;;;;;;;;;;16.00;61.90;;;;;;4945905;28;19918;-77
2021/04/09 04:13:44;;;;;;;;;;;16.00;61.80;;;;;;4944977;28;19918;-77
2021/04/09 04:16:10;;;;;;;;;;;16.00;61.80;;;;;;4943707;28;19918;-79
2021/04/09 04:18:35;;;;;;;;;;;16.00;61.80;;;;;;4944008;28;19922;-77
2021/04/09 04:21:01;;;;;;;;;;;16.00;61.80;;;;;;4946033;28;19968;-77
2021/04/09 04:23:27;;;;;;;;;;;16.00;61.70;;;;;;4944902;28;19931;-77
2021/04/09 04:25:52;;;;;;;;;;;16.00;61.80;;;;;;4944298;28;19980;-77
2021/04/09 04:28:19;;;;;;;;;;;16.00;61.80;;;;;;4941637;28;20277;-77
2021/04/09 04:30:50;;;;;;;;;;;16.00;61.70;;;;;;4945182;28;19926;-77
2021/04/09 04:33:22;;;;;;;;;;;16.00;61.70;;;;;;4944618;28;19925;-79
2021/04/09 04:35:48;;;;;;;;;;;16.00;61.70;;;;;;4960387;28;20249;-77
2021/04/09 04:38:13;;;;;;;;;;;16.00;61.70;;;;;;4945337;28;19915;-76
2021/04/09 04:40:39;;;;;;;;;;;16.00;61.70;;;;;;4943213;28;19922;-78
2021/04/09 04:43:04;;;;;;;;;;;16.00;61.70;;;;;;4943531;28;20379;-78
2021/04/09 04:45:30;;;;;;;;;;;16.00;61.60;;;;;;4948911;28;20284;-77
2021/04/09 04:47:56;;;;;;;;;;;16.00;61.60;;;;;;4940798;28;19919;-77
2021/04/09 04:50:21;;;;;;;;;;;16.10;61.60;;;;;;4940159;28;20349;-77
2021/04/09 04:52:47;;;;;;;;;;;16.00;61.60;;;;;;4943100;28;19975;-77
2021/04/09 04:55:12;;;;;;;;;;;16.00;61.60;;;;;;4947802;28;20057;-78
2021/04/09 04:57:38;;;;;;;;;;;16.00;61.60;;;;;;4945228;28;20056;-78
2021/04/09 05:00:04;;;;;;;;;;;16.00;61.50;;;;;;4946294;28;20382;-78
2021/04/09 05:02:29;;;;;;;;;;;16.00;61.50;;;;;;4941416;28;19915;-77
2021/04/09 05:04:55;;;;;;;;;;;16.00;61.50;;;;;;4946565;28;19919;-77
2021/04/09 05:07:20;;;;;;;;;;;16.00;61.50;;;;;;4944561;28;19933;-77
2021/04/09 05:09:46;;;;;;;;;;;16.00;61.50;;;;;;4946627;28;19941;-78
2021/04/09 05:12:12;;;;;;;;;;;16.00;61.40;;;;;;4942191;28;19998;-78
2021/04/09 05:14:37;;;;;;;;;;;16.00;61.40;;;;;;4947576;28;20271;-77
2021/04/09 05:17:03;;;;;;;;;;;16.00;61.40;;;;;;4943036;28;19915;-78
2021/04/09 05:19:28;;;;;;;;;;;16.00;61.40;;;;;;4945467;28;19918;-77
2021/04/09 05:21:54;;;;;;;;;;;16.00;61.30;;;;;;4948125;28;19918;-78
2021/04/09 05:24:19;;;;;;;;;;;16.00;61.30;;;;;;4947838;28;20406;-77
2021/04/09 05:26:45;;;;;;;;;;;16.10;61.30;;;;;;4945296;28;19925;-77
2021/04/09 05:29:10;;;;;;;;;;;16.00;61.20;;;;;;4944727;28;20394;-77
2021/04/09 05:31:36;;;;;;;;;;;16.10;61.20;;;;;;4946167;28;19918;-78
2021/04/09 05:34:02;;;;;;;;;;;16.10;61.20;;;;;;4944158;28;19915;-77
2021/04/09 05:36:27;;;;;;;;;;;16.10;61.20;;;;;;4940996;28;19915;-77
2021/04/09 05:38:53;;;;;;;;;;;16.00;61.10;;;;;;4939699;28;19923;-77
2021/04/09 05:41:18;;;;;;;;;;;16.10;61.10;;;;;;4943694;28;19977;-77
2021/04/09 05:43:44;;;;;;;;;;;16.10;61.10;;;;;;4946858;28;20017;-78
2021/04/09 05:46:10;;;;;;;;;;;16.10;61.00;;;;;;4941266;28;19926;-77
2021/04/09 05:48:35;;;;;;;;;;;16.10;61.00;;;;;;4947039;28;19933;-79
2021/04/09 05:51:01;;;;;;;;;;;16.10;61.00;;;;;;4946797;28;19923;-77
2021/04/09 05:53:26;;;;;;;;;;;16.10;60.90;;;;;;4960920;28;19922;-78
2021/04/09 05:55:52;;;;;;;;;;;16.10;60.90;;;;;;4945851;28;19921;-78
2021/04/09 05:58:18;;;;;;;;;;;16.10;60.90;;;;;;4940914;28;19918;-79
2021/04/09 06:00:43;;;;;;;;;;;16.10;60.90;;;;;;4943466;28;20310;-77
2021/04/09 06:03:09;;;;;;;;;;;16.10;60.80;;;;;;4940536;28;19919;-78
2021/04/09 06:05:35;;;;;;;;;;;16.10;60.80;;;;;;4956294;28;19915;-79
2021/04/09 06:08:00;;;;;;;;;;;16.20;60.80;;;;;;4943970;28;20303;-77
2021/04/09 06:10:26;;;;;;;;;;;16.10;60.70;;;;;;4977400;28;19968;-77
2021/04/09 06:12:51;;;;;;;;;;;16.10;60.70;;;;;;4942571;28;19925;-77
2021/04/09 06:15:17;;;;;;;;;;;16.10;60.70;;;;;;4943582;28;19914;-77
2021/04/09 06:17:45;;;;;;;;;;;16.10;60.70;;;;;;4941361;28;19915;-77
2021/04/09 06:20:11;;;;;;;;;;;16.10;60.60;;;;;;4942662;28;19915;-77
2021/04/09 06:22:37;;;;;;;;;;;16.10;60.60;;;;;;4943181;28;19921;-77
2021/04/09 06:25:06;;;;;;;;;;;16.10;60.60;;;;;;4937714;28;19922;-78
2021/04/09 06:27:32;;;;;;;;;;;16.20;60.50;;;;;;4959275;28;19993;-78
2021/04/09 06:29:57;;;;;;;;;;;16.10;60.50;;;;;;4950010;28;20364;-77
2021/04/09 06:32:23;;;;;;;;;;;16.10;60.50;;;;;;4944941;28;19922;-77
2021/04/09 06:34:48;;;;;;;;;;;16.20;60.50;;;;;;4954347;28;19951;-77
2021/04/09 06:37:14;;;;;;;;;;;16.20;60.40;;;;;;4946556;28;19914;-77
2021/04/09 06:39:39;;;;;;;;;;;16.20;60.40;;;;;;4951253;28;19922;-77
2021/04/09 06:42:06;;;;;;;;;;;16.20;60.40;;;;;;4948759;28;20006;-78
2021/04/09 06:44:32;;;;;;;;;;;16.20;60.40;;;;;;4946780;28;19932;-78
2021/04/09 06:46:57;;;;;;;;;;;16.20;60.40;;;;;;4955047;28;20001;-78
2021/04/09 06:49:25;;;;;;;;;;;16.20;60.40;;;;;;4946840;28;20285;-77
2021/04/09 06:51:50;;;;;;;;;;;16.20;60.30;;;;;;4939737;28;19915;-77
2021/04/09 06:54:16;;;;;;;;;;;16.20;60.30;;;;;;4940686;28;20287;-78
2021/04/09 06:56:43;;;;;;;;;;;16.20;60.30;;;;;;4945353;28;19922;-74
2021/04/09 06:59:15;;;;;;;;;;;16.20;60.20;;;;;;4966927;28;19915;-73
2021/04/09 07:01:41;;;;;;;;;;;16.30;60.20;;;;;;4936877;28;19919;-74
2021/04/09 07:04:07;;;;;;;;;;;16.30;60.20;;;;;;4978890;28;19972;-76
2021/04/09 07:06:33;;;;;;;;;;;16.30;60.20;;;;;;4959491;28;19919;-76
2021/04/09 07:08:58;;;;;;;;;;;16.30;60.20;;;;;;4940609;28;20070;-77
2021/04/09 07:11:24;;;;;;;;;;;16.20;60.10;;;;;;4943560;28;19918;-73
2021/04/09 07:13:52;;;;;;;;;;;16.30;60.10;;;;;;4945981;28;19945;-75
2021/04/09 07:16:18;;;;;;;;;;;16.30;60.10;;;;;;4972063;28;19923;-75
2021/04/09 07:18:51;;;;;;;;;;;16.30;60.10;;;;;;4942294;28;20402;-75
2021/04/09 07:21:27;;;;;;;;;;;16.30;59.70;;;;;;4942509;28;19919;-77
2021/04/09 07:24:17;;;;;;;;;;;16.20;59.40;;;;;;4947398;28;20005;-76
2021/04/09 07:26:44;;;;;;;;;;;16.30;59.50;;;;;;4952928;28;19918;-76
2021/04/09 07:29:28;;;;;;;;;;;16.30;59.50;;;;;;4944413;28;19919;-76
2021/04/09 07:31:54;;;;;;;;;;;16.30;59.50;;;;;;4947856;28;19915;-76
2021/04/09 07:34:20;;;;;;;;;;;16.30;59.50;;;;;;4947869;28;19915;-76
2021/04/09 07:36:52;;;;;;;;;;;16.30;59.50;;;;;;4989871;28;19952;-76
2021/04/09 07:39:30;;;;;;;;;;;16.30;59.50;;;;;;4953965;28;19936;-76
2021/04/09 07:42:09;;;;;;;;;;;16.30;59.50;;;;;;4972228;28;19929;-76
2021/04/09 07:44:34;;;;;;;;;;;16.30;59.50;;;;;;4941966;28;19922;-76
2021/04/09 07:47:14;;;;;;;;;;;16.30;59.40;;;;;;4946919;28;19919;-77
2021/04/09 07:49:39;;;;;;;;;;;16.30;59.30;;;;;;4944497;28;19976;-77
2021/04/09 07:52:11;;;;;;;;;;;16.30;59.40;;;;;;4975868;28;19915;-78
2021/04/09 07:54:38;;;;;;;;;;;16.30;59.30;;;;;;4945151;28;20301;-78
2021/04/09 07:57:04;;;;;;;;;;;16.30;59.30;;;;;;4941703;28;19958;-80
2021/04/09 07:59:40;;;;;;;;;;;16.30;59.30;;;;;;4947057;28;20383;-76
2021/04/09 08:02:06;;;;;;;;;;;16.40;59.30;;;;;;4948489;28;20257;-76
2021/04/09 08:04:42;;;;;;;;;;;16.30;59.20;;;;;;4950877;28;19919;-76
2021/04/09 08:07:27;;;;;;;;;;;16.40;59.20;;;;;;4949722;28;20391;-76
2021/04/09 08:09:53;;;;;;;;;;;16.40;59.10;;;;;;4956167;28;19945;-77
2021/04/09 08:12:24;;;;;;;;;;;16.30;59.10;;;;;;4943973;28;20041;-77
2021/04/09 08:14:50;;;;;;;;;;;16.40;59.10;;;;;;4977872;28;20004;-77
2021/04/09 08:17:17;;;;;;;;;;;16.40;59.10;;;;;;4943643;28;19965;-76
2021/04/09 08:19:43;;;;;;;;;;;16.40;59.10;;;;;;4939899;28;19954;-77
2021/04/09 08:22:09;;;;;;;;;;;16.40;59.10;;;;;;4947431;28;20003;-76
2021/04/09 08:24:36;;;;;;;;;;;16.40;59.00;;;;;;4947089;28;19967;-77
2021/04/09 08:27:02;;;;;;;;;;;16.40;59.10;;;;;;4945211;28;19926;-78
2021/04/09 08:29:28;;;;;;;;;;;16.40;59.10;;;;;;4967777;28;19930;-78
2021/04/09 08:31:54;;;;;;;;;;;16.40;59.10;;;;;;4953790;28;19919;-78
2021/04/09 08:34:20;;;;;;;;;;;16.50;59.00;;;;;;4952958;28;19915;-77
2021/04/09 08:36:46;;;;;;;;;;;16.50;59.00;;;;;;4942170;28;20327;-78
2021/04/09 08:39:13;;;;;;;;;;;16.40;59.00;;;;;;4958077;28;19926;-77
2021/04/09 08:41:44;;;;;;;;;;;16.50;59.00;;;;;;4946018;28;19918;-77
2021/04/09 08:44:10;;;;;;;;;;;16.50;59.00;;;;;;4942249;28;19955;-78
2021/04/09 08:46:36;;;;;;;;;;;16.50;59.00;;;;;;4939579;28;20009;-78
2021/04/09 08:49:02;;;;;;;;;;;16.50;58.90;;;;;;4985013;28;20035;-78
2021/04/09 08:51:28;;;;;;;;;;;16.50;58.90;;;;;;4956316;28;20017;-78
2021/04/09 08:53:54;;;;;;;;;;;16.50;58.90;;;;;;5014703;28;19997;-77
2021/04/09 08:56:31;;;;;;;;;;;16.50;58.90;;;;;;4955943;28;20330;-76
2021/04/09 08:58:57;;;;;;;;;;;16.50;58.90;;;;;;4943422;28;19954;-78
2021/04/09 09:01:23;;;;;;;;;;;16.50;58.90;;;;;;4953990;28;19965;-78
2021/04/09 09:03:48;;;;;;;;;;;16.60;58.80;;;;;;4950486;28;19934;-78
2021/04/09 09:06:14;;;;;;;;;;;16.50;58.80;;;;;;4967794;28;19953;-78
2021/04/09 09:08:46;;;;;;;;;;;16.50;58.80;;;;;;4965170;28;19912;-78
2021/04/09 09:11:12;;;;;;;;;;;16.60;58.80;;;;;;4980987;28;19922;-78
2021/04/09 09:13:41;;;;;;;;;;;16.50;58.70;;;;;;4954820;28;19915;-78
2021/04/09 09:16:17;;;;;;;;;;;16.60;58.70;;;;;;4954120;28;20375;-78
2021/04/09 09:18:45;;;;;;;;;;;16.60;58.70;;;;;;4966699;28;19987;-76
2021/04/09 09:21:11;;;;;;;;;;;16.60;58.70;;;;;;4945755;28;19914;-78
2021/04/09 09:23:45;;;;;;;;;;;16.60;58.70;;;;;;4965454;28;20371;-78
2021/04/09 09:26:30;;;;;;;;;;;16.60;58.60;;;;;;4974988;28;19919;-78
2021/04/09 09:29:12;;;;;;;;;;;16.60;58.60;;;;;;4994192;28;20342;-77
2021/04/09 09:31:42;;;;;;;;;;;16.70;58.50;;;;;;4957550;28;19938;-78
2021/04/09 09:34:16;;;;;;;;;;;16.70;58.50;;;;;;4942178;28;20431;-78
2021/04/09 09:36:51;;;;;;;;;;;16.70;58.50;;;;;;4970561;28;20283;-77
2021/04/09 09:39:30;;;;;;;;;;;16.70;58.50;;;;;;4951684;28;19961;-79
2021/04/09 09:41:56;;;;;;;;;;;16.70;58.40;;;;;;4946633;28;20283;-78
2021/04/09 09:44:35;;;;;;;;;;;16.70;58.40;;;;;;4946956;28;19927;-78
2021/04/09 09:47:00;;;;;;;;;;;16.70;58.40;;;;;;4964313;28;20257;-78
2021/04/09 09:49:27;;;;;;;;;;;16.70;58.40;;;;;;4995206;28;19919;-78
2021/04/09 09:51:52;;;;;;;;;;;16.70;58.40;;;;;;4941513;28;19915;-78
2021/04/09 09:54:26;;;;;;;;;;;16.70;58.30;;;;;;4964349;28;20397;-78
2021/04/09 09:56:52;;;;;;;;;;;16.80;58.30;;;;;;4969347;28;19919;-76
2021/04/09 09:59:18;;;;;;;;;;;16.70;58.30;;;;;;4987975;28;19922;-78
2021/04/09 10:01:49;;;;;;;;;;;16.70;58.30;;;;;;4972928;28;19926;-82
2021/04/09 10:04:14;;;;;;;;;;;16.70;58.30;;;;;;4942323;28;19915;-84
2021/04/09 10:06:45;;;;;;;;;;;16.80;58.20;;;;;;4938990;28;19961;-83
2021/04/09 10:09:11;;;;;;;;;;;16.80;58.20;;;;;;4938424;29;20011;-83
2021/04/09 10:11:43;;;;;;;;;;;16.80;58.20;;;;;;4969863;28;19978;-83
2021/04/09 10:14:08;;;;;;;;;;;16.80;58.10;;;;;;4937728;29;19915;-83
2021/04/09 10:16:34;;;;;;;;;;;16.80;58.10;;;;;;4966643;28;19914;-84
2021/04/09 10:19:05;;;;;;;;;;;16.80;58.10;;;;;;4950585;28;20009;-83
2021/04/09 10:21:31;;;;;;;;;;;16.80;58.10;;;;;;4945328;28;19922;-83
2021/04/09 10:24:07;;;;;;;;;;;16.80;58.10;;;;;;4942272;28;19926;-78
2021/04/09 10:26:34;;;;;;;;;;;16.80;58.00;;;;;;4938054;28;20014;-80
2021/04/09 10:29:00;;;;;;;;;;;16.80;58.00;;;;;;4937136;28;19926;-81
2021/04/09 10:31:25;;;;;;;;;;;16.80;58.00;;;;;;4948365;28;19921;-79
2021/04/09 10:33:55;;;;;;;;;;;16.80;58.00;;;;;;4944192;28;19918;-78
2021/04/09 10:36:25;;;;;;;;;;;16.80;58.00;;;;;;4942627;28;19922;-81
2021/04/09 10:38:51;;;;;;;;;;;16.80;58.00;;;;;;4946203;28;19922;-82
2021/04/09 10:41:32;;;;;;;;;;;16.80;57.90;;;;;;4945026;28;19915;-81
2021/04/09 10:44:02;;;;;;;;;;;16.80;57.90;;;;;;4942800;28;19948;-82
2021/04/09 10:46:29;;;;;;;;;;;16.80;57.90;;;;;;4946412;28;19918;-82
2021/04/09 10:49:02;;;;;;;;;;;16.80;57.90;;;;;;4940215;28;19919;-82
2021/04/09 10:51:28;;;;;;;;;;;16.90;57.80;;;;;;4952064;28;19918;-81
2021/04/09 10:53:55;;;;;;;;;;;16.90;57.80;;;;;;4943293;28;20357;-82
2021/04/09 10:56:20;;;;;;;;;;;16.90;57.80;;;;;;4951535;28;20005;-82
2021/04/09 10:58:46;;;;;;;;;;;16.90;57.70;;;;;;4947122;28;20348;-81
2021/04/09 11:01:12;;;;;;;;;;;16.90;57.70;;;;;;4946960;28;19945;-81
2021/04/09 11:03:38;;;;;;;;;;;17.00;57.60;;;;;;4944041;28;19938;-78
2021/04/09 11:06:03;;;;;;;;;;;16.90;57.60;;;;;;4934447;28;19965;-79
2021/04/09 11:08:38;;;;;;;;;;;16.90;57.60;;;;;;4964477;28;19972;-78
2021/04/09 11:11:14;;;;;;;;;;;16.90;57.60;;;;;;4950233;28;19965;-78
2021/04/09 11:13:40;;;;;;;;;;;17.00;57.60;;;;;;4951026;28;20359;-78
2021/04/09 11:16:07;;;;;;;;;;;17.00;57.50;;;;;;4951771;28;19947;-78
2021/04/09 11:19:04;;;;;;;;;;;17.00;57.50;;;;;;4948131;28;19965;-78
2021/04/09 11:21:43;;;;;;;;;;;17.00;57.40;;;;;;4954747;28;20096;-78
2021/04/09 11:24:13;;;;;;;;;;;17.00;57.30;;;;;;4970768;28;20278;-78
2021/04/09 11:26:38;;;;;;;;;;;17.10;57.20;;;;;;4968409;28;19919;-78
2021/04/09 11:29:04;;;;;;;;;;;17.10;57.10;;;;;;4933098;28;19945;-78
2021/04/09 11:31:33;;;;;;;;;;;17.10;57.00;;;;;;4958489;28;19922;-78
2021/04/09 11:34:09;;;;;;;;;;;17.10;57.00;;;;;;4937121;28;19915;-78
2021/04/09 11:36:39;;;;;;;;;;;17.20;56.80;;;;;;4966663;28;19922;-78
2021/04/09 11:39:07;;;;;;;;;;;17.30;56.70;;;;;;4961163;28;20245;-78
2021/04/09 11:41:34;;;;;;;;;;;17.30;56.50;;;;;;4957912;28;19941;-81
2021/04/09 11:44:00;;;;;;;;;;;17.30;56.40;;;;;;4933730;28;19923;-82
2021/04/09 11:46:35;;;;;;;;;;;17.30;56.30;;;;;;4945040;28;19918;-78
2021/04/09 11:49:02;;;;;;;;;;;17.30;56.30;;;;;;4932973;28;19919;-78
2021/04/09 11:51:28;;;;;;;;;;;17.30;56.20;;;;;;4947547;28;19923;-78
2021/04/09 11:54:03;;;;;;;;;;;17.30;56.20;;;;;;4932642;28;19972;-78
2021/04/09 11:56:43;;;;;;;;;;;17.30;56.20;;;;;;4935169;28;19941;-78
2021/04/09 11:59:12;;;;;;;;;;;17.40;56.20;;;;;;4937120;28;20437;-78
2021/04/09 12:01:38;;;;;;;;;;;17.30;56.30;;;;;;4996053;28;19919;-79
2021/04/09 12:04:04;;;;;;;;;;;17.30;56.30;;;;;;4960569;28;20275;-78
2021/04/09 12:06:35;;;;;;;;;;;17.30;56.30;;;;;;4996922;28;19922;-78
2021/04/09 12:09:00;;;;;;;;;;;17.30;56.30;;;;;;4945922;28;19925;-78
2021/04/09 12:11:26;;;;;;;;;;;17.30;56.30;;;;;;4938012;28;19915;-76
2021/04/09 12:13:51;;;;;;;;;;;17.30;56.30;;;;;;4939832;28;19918;-75
2021/04/09 12:16:23;;;;;;;;;;;17.30;56.30;;;;;;4937171;28;19915;-76
2021/04/09 12:18:54;;;;;;;;;;;17.30;56.40;;;;;;4952000;28;19918;-76
2021/04/09 12:21:19;;;;;;;;;;;17.30;56.40;;;;;;4945342;28;20001;-76
2021/04/09 12:23:45;;;;;;;;;;;17.30;56.40;;;;;;4966757;28;20075;-78
2021/04/09 12:26:10;;;;;;;;;;;17.30;56.30;;;;;;4945437;28;19922;-76
2021/04/09 12:28:37;;;;;;;;;;;17.30;56.30;;;;;;4946743;28;19915;-76
2021/04/09 12:31:02;;;;;;;;;;;17.40;56.30;;;;;;4941270;28;20638;-76
2021/04/09 12:33:28;;;;;;;;;;;17.30;56.20;;;;;;4959766;28;19965;-76
2021/04/09 12:35:53;;;;;;;;;;;17.40;56.20;;;;;;4937109;28;19919;-77
2021/04/09 12:38:19;;;;;;;;;;;17.40;56.10;;;;;;4942988;28;19922;-76
2021/04/09 12:40:44;;;;;;;;;;;17.40;56.20;;;;;;4954561;28;19922;-76
2021/04/09 12:43:10;;;;;;;;;;;17.30;56.10;;;;;;4949023;28;19933;-75
2021/04/09 12:45:35;;;;;;;;;;;17.30;56.20;;;;;;4961109;28;19969;-76
2021/04/09 12:48:01;;;;;;;;;;;17.40;56.10;;;;;;4949838;28;20009;-75
2021/04/09 12:50:26;;;;;;;;;;;17.40;56.10;;;;;;4951090;28;19918;-76
2021/04/09 12:52:52;;;;;;;;;;;17.40;56.00;;;;;;4945833;28;20022;-76
2021/04/09 12:55:17;;;;;;;;;;;17.50;55.90;;;;;;4935080;28;19915;-76
2021/04/09 12:57:43;;;;;;;;;;;17.50;55.90;;;;;;4941857;28;19911;-76
2021/04/09 13:00:09;;;;;;;;;;;17.50;55.90;;;;;;5036847;28;19916;-76
2021/04/09 13:02:34;;;;;;;;;;;17.50;55.90;;;;;;4938744;28;19915;-76
2021/04/09 13:05:03;;;;;;;;;;;17.50;55.90;;;;;;4978529;28;20013;-76
2021/04/09 13:07:41;;;;;;;;;;;17.50;55.90;;;;;;4989062;28;19922;-76
2021/04/09 13:10:08;;;;;;;;;;;17.50;55.90;;;;;;4952559;28;19918;-77
2021/04/09 13:12:45;;;;;;;;;;;17.50;55.80;;;;;;4948803;28;19921;-77
2021/04/09 13:15:13;;;;;;;;;;;17.50;55.90;;;;;;4952351;28;20104;-76
2021/04/09 13:17:43;;;;;;;;;;;17.50;55.80;;;;;;4949046;28;19914;-76
2021/04/09 13:20:23;;;;;;;;;;;17.50;55.80;;;;;;4982710;28;19915;-76
2021/04/09 13:22:53;;;;;;;;;;;17.50;55.70;;;;;;4966017;28;19957;-76
2021/04/09 13:25:19;;;;;;;;;;;17.50;55.70;;;;;;4954567;28;20001;-78
2021/04/09 13:27:53;;;;;;;;;;;17.50;55.70;;;;;;4968554;28;20059;-76
2021/04/09 13:30:23;;;;;;;;;;;17.60;55.70;;;;;;4951047;28;19926;-77
2021/04/09 13:32:54;;;;;;;;;;;17.50;55.60;;;;;;4950948;28;19921;-77
2021/04/09 13:35:32;;;;;;;;;;;17.50;55.70;;;;;;4951560;28;19915;-77
2021/04/09 13:38:09;;;;;;;;;;;17.60;55.70;;;;;;4935733;28;19922;-77
2021/04/09 13:40:49;;;;;;;;;;;17.50;55.70;;;;;;4948064;28;19918;-77
2021/04/09 13:43:17;;;;;;;;;;;17.50;55.70;;;;;;4950729;28;19929;-78
2021/04/09 13:45:49;;;;;;;;;;;17.50;55.70;;;;;;4945454;28;19922;-77
2021/04/09 13:48:28;;;;;;;;;;;17.50;55.70;;;;;;4987556;28;19945;-76
2021/04/09 13:51:07;;;;;;;;;;;17.50;55.80;;;;;;4945141;28;19930;-78
2021/04/09 13:53:32;;;;;;;;;;;17.50;55.80;;;;;;4981768;28;19926;-80
2021/04/09 13:56:12;;;;;;;;;;;17.50;55.80;;;;;;4936618;28;19915;-77
2021/04/09 13:58:43;;;;;;;;;;;17.50;55.80;;;;;;4984648;28;19922;-77
2021/04/09 14:01:08;;;;;;;;;;;17.50;55.90;;;;;;4974979;28;19980;-77
2021/04/09 14:03:46;;;;;;;;;;;17.50;55.90;;;;;;4946205;28;20427;-78
2021/04/09 14:06:12;;;;;;;;;;;17.50;55.80;;;;;;4935317;28;19930;-77
2021/04/09 14:08:42;;;;;;;;;;;17.50;55.80;;;;;;4983206;28;19919;-77
2021/04/09 14:11:12;;;;;;;;;;;17.50;55.80;;;;;;4952243;28;20279;-78
2021/04/09 14:13:38;;;;;;;;;;;17.50;55.90;;;;;;4939328;28;19918;-77
2021/04/09 14:16:29;;;;;;;;;;;17.50;55.90;;;;;;4942486;28;20002;-78
2021/04/09 14:19:21;;;;;;;;;;;17.40;55.90;;;;;;4942654;28;19915;-80
2021/04/09 14:21:52;;;;;;;;;;;17.50;55.90;;;;;;4959104;28;19915;-77